Terminal Aerodrome Forecast
Issued by NWS

Home | Current Version | Previous Version | Text Only | Print | Product List | Glossary Off
Versions: 1 2 3 4 5 6 7 8 9 10 11 12 13 14 15 16

000
FTUS45 KGGW 150100 AAA
TAFOLF
TAF AMD
KOLF 150104Z 1501/1524 28007KT P6SM SCT200
     FM150300 10008KT P6SM SCT160
     FM150600 10008KT P6SM BKN180
     FM152100 36009KT P6SM BKN130=

USA.gov is the U.S. government's official web portal to all federal, state and local government web resources and services.